METAR Data
IDs: Format: Raw Decoded Include TAF

Data at: 0247 UTC 03 Jul 2022

FNLU 030100Z 00000KT 7000 BKN020 22/20 Q1015

FNLU 022300Z 0300/0406 18008KT 9000 NSC
  PROB30
  TEMPO 0304/0308 VRB03KT 4000 BR BKN020
  BECMG 0314/0318 27010KT CAVOK


No METAR found for FNCA

FNCA 022300Z 0300/0312 18005KT 9000 BKN015

No METAR found for FNBG

FNBG 022300Z 0300/0312 18010KT 8000 BKN018

No METAR found for FNHU

FNHU 022300Z 0300/0312 VRB03KT 8000 SCT015

No METAR found for FNUE

FNUE 022300Z 0300/0312 VRB03KT 8000 SCT015

No METAR found for FNGI

FNGI 022300Z 0300/0312 06008KT CAVOK

No METAR found for FNUB

FNUB 022300Z 0300/0312 VRB03KT CAVOK

No METAR found for FNMO

FNMO 022300Z 0300/0312 18012KT BKN015

No METAR found for FNUG
No TAF found for FNUG

No METAR found for FNMA

FNMA 022300Z 0300/0312 16005KT 9000 SCT015

No METAR found for FNSA

FNSA 022300Z 0300/0312 16005KT 8000 NSC

No METAR found for FNSO

FNSO 022300Z 0300/0312 17005KT 8000 BKN015

No METAR found for FNBC
No TAF found for FNBC

No METAR found for FNSU
No TAF found for FNSU

No METAR found for FNDU

FNDU 022300Z 0300/0312 VRB03KT 8000 NSC

No METAR found for FNME

FNME 022300Z 0300/0312 11005KT CAVOK

No METAR found for FNCT

FNCT 022300Z 0300/0312 19012KT 8000 BKN018

No METAR found for FNKU

FNKU 022300Z 0300/0312 14005KT 8000 SCT015